sensor_id;sensor_type;location;lat;lon;timestamp;pressure;altitude;pressure_sealevel;temperature;humidity
21988;BME280;11158;53.404;-1.510;2024-01-06T12:51:47;100972.13;;;5.48;65.81
21988;BME280;11158;53.404;-1.510;2024-01-06T12:54:13;100966.97;;;5.35;66.82
21988;BME280;11158;53.404;-1.510;2024-01-06T12:56:38;100966.09;;;5.39;67.40
21988;BME280;11158;53.404;-1.510;2024-01-06T12:59:07;100965.94;;;5.48;67.83
21988;BME280;11158;53.404;-1.510;2024-01-06T13:01:32;100960.56;;;5.57;67.53
21988;BME280;11158;53.404;-1.510;2024-01-06T13:03:58;100961.50;;;5.53;66.82
21988;BME280;11158;53.404;-1.510;2024-01-06T13:06:32;100953.59;;;5.50;68.05
21988;BME280;11158;53.404;-1.510;2024-01-06T13:08:58;100961.56;;;5.48;68.61
21988;BME280;11158;53.404;-1.510;2024-01-06T13:11:23;100959.88;;;5.40;67.95
21988;BME280;11158;53.404;-1.510;2024-01-06T13:13:49;100973.19;;;5.34;67.52
21988;BME280;11158;53.404;-1.510;2024-01-06T13:33:25;100976.59;;;5.42;69.09
21988;BME280;11158;53.404;-1.510;2024-01-06T13:35:51;100973.19;;;5.32;68.47
21988;BME280;11158;53.404;-1.510;2024-01-06T13:38:16;100981.97;;;5.34;69.19
21988;BME280;11158;53.404;-1.510;2024-01-06T13:40:42;100975.03;;;5.24;69.47
21988;BME280;11158;53.404;-1.510;2024-01-06T13:43:07;100981.91;;;5.40;68.31
21988;BME280;11158;53.404;-1.510;2024-01-06T13:45:35;100982.56;;;5.59;68.32
21988;BME280;11158;53.404;-1.510;2024-01-06T13:48:01;100983.38;;;5.67;68.36
21988;BME280;11158;53.404;-1.510;2024-01-06T13:50:27;100985.06;;;5.73;67.42
21988;BME280;11158;53.404;-1.510;2024-01-06T13:52:53;100990.38;;;5.68;68.20
21988;BME280;11158;53.404;-1.510;2024-01-06T13:55:19;100990.09;;;5.92;66.89
21988;BME280;11158;53.404;-1.510;2024-01-06T13:57:45;100964.53;;;7.52;62.47
21988;BME280;11158;53.404;-1.510;2024-01-06T14:00:11;100966.19;;;6.61;65.46
21988;BME280;11158;53.404;-1.510;2024-01-06T14:02:40;100975.16;;;6.53;65.62
21988;BME280;11158;53.404;-1.510;2024-01-06T14:05:05;100976.84;;;5.96;68.50
21988;BME280;11158;53.404;-1.510;2024-01-06T14:07:35;100983.38;;;5.64;69.05
21988;BME280;11158;53.404;-1.510;2024-01-06T14:10:01;100983.38;;;5.66;68.90
21988;BME280;11158;53.404;-1.510;2024-01-06T14:12:29;100987.00;;;5.56;70.25
21988;BME280;11158;53.404;-1.510;2024-01-06T14:14:55;100990.47;;;5.61;70.23
21988;BME280;11158;53.404;-1.510;2024-01-06T14:17:21;100999.13;;;5.75;70.21
21988;BME280;11158;53.404;-1.510;2024-01-06T14:21:40;101001.03;;;5.64;70.77
21988;BME280;11158;53.404;-1.510;2024-01-06T14:24:06;100997.53;;;5.63;70.13
21988;BME280;11158;53.404;-1.510;2024-01-06T14:26:32;100998.41;;;5.61;70.14
21988;BME280;11158;53.404;-1.510;2024-01-06T14:28:58;101004.72;;;5.47;71.29
21988;BME280;11158;53.404;-1.510;2024-01-06T14:31:24;101004.72;;;5.51;70.34
21988;BME280;11158;53.404;-1.510;2024-01-06T14:33:49;101008.28;;;5.46;71.21
21988;BME280;11158;53.404;-1.510;2024-01-06T14:36:15;101011.84;;;5.42;70.60
21988;BME280;11158;53.404;-1.510;2024-01-06T14:38:40;101017.16;;;5.41;71.43
21988;BME280;11158;53.404;-1.510;2024-01-06T14:41:06;101017.97;;;5.46;70.84
21988;BME280;11158;53.404;-1.510;2024-01-06T14:43:31;101022.41;;;5.42;71.20
21988;BME280;11158;53.404;-1.510;2024-01-06T14:45:57;101024.06;;;5.54;70.43
21988;BME280;11158;53.404;-1.510;2024-01-06T14:48:22;101032.00;;;5.53;71.18
21988;BME280;11158;53.404;-1.510;2024-01-06T14:50:48;101036.44;;;5.51;70.67
21988;BME280;11158;53.404;-1.510;2024-01-06T14:53:14;101038.16;;;5.56;70.88
21988;BME280;11158;53.404;-1.510;2024-01-06T14:55:39;101036.34;;;5.60;70.32
21988;BME280;11158;53.404;-1.510;2024-01-06T14:58:05;101046.09;;;5.55;71.31
21988;BME280;11158;53.404;-1.510;2024-01-06T15:00:30;101052.31;;;5.51;70.65
21988;BME280;11158;53.404;-1.510;2024-01-06T15:02:57;101052.38;;;5.41;71.47
21988;BME280;11158;53.404;-1.510;2024-01-06T15:05:23;101053.25;;;5.42;71.70
21988;BME280;11158;53.404;-1.510;2024-01-06T15:07:51;101062.91;;;5.46;72.65
21988;BME280;11158;53.404;-1.510;2024-01-06T15:10:16;101064.66;;;5.48;72.70
21988;BME280;11158;53.404;-1.510;2024-01-06T15:12:41;101059.38;;;5.48;72.58
21988;BME280;11158;53.404;-1.510;2024-01-06T15:15:07;101069.88;;;5.55;71.51
21988;BME280;11158;53.404;-1.510;2024-01-06T15:17:34;101068.09;;;5.57;71.28
21988;BME280;11158;53.404;-1.510;2024-01-06T15:19:59;101081.38;;;5.51;72.10
21988;BME280;11158;53.404;-1.510;2024-01-06T15:22:24;101075.16;;;5.55;72.48
21988;BME280;11158;53.404;-1.510;2024-01-06T15:24:50;101078.75;;;5.51;72.89
21988;BME280;11158;53.404;-1.510;2024-01-06T15:27:16;101078.75;;;5.47;72.13
21988;BME280;11158;53.404;-1.510;2024-01-06T15:29:41;101080.47;;;5.55;71.55
21988;BME280;11158;53.404;-1.510;2024-01-06T15:32:07;101091.97;;;5.47;72.95
21988;BME280;11158;53.404;-1.510;2024-01-06T15:34:33;101088.47;;;5.48;72.32
21988;BME280;11158;53.404;-1.510;2024-01-06T15:36:59;101097.25;;;5.47;72.73
21988;BME280;11158;53.404;-1.510;2024-01-06T15:39:24;101107.75;;;5.55;71.88
21988;BME280;11158;53.404;-1.510;2024-01-06T15:41:49;101113.09;;;5.51;72.18
21988;BME280;11158;53.404;-1.510;2024-01-06T15:44:17;101108.72;;;5.48;71.87
21988;BME280;11158;53.404;-1.510;2024-01-06T15:46:42;101113.19;;;5.41;73.50
21988;BME280;11158;53.404;-1.510;2024-01-06T15:49:08;101111.47;;;5.39;73.33
21988;BME280;11158;53.404;-1.510;2024-01-06T15:51:33;101116.81;;;5.30;73.02
21988;BME280;11158;53.404;-1.510;2024-01-06T15:53:59;101113.34;;;5.24;74.00
21988;BME280;11158;53.404;-1.510;2024-01-06T15:56:24;101124.78;;;5.23;75.01
21988;BME280;11158;53.404;-1.510;2024-01-06T15:58:50;101116.81;;;5.30;73.58
21988;BME280;11158;53.404;-1.510;2024-01-06T16:01:19;101121.31;;;5.20;74.15
21988;BME280;11158;53.404;-1.510;2024-01-06T16:03:44;101122.25;;;5.13;75.47
21988;BME280;11158;53.404;-1.510;2024-01-06T16:06:10;101132.81;;;5.11;74.19
21988;BME280;11158;53.404;-1.510;2024-01-06T16:08:35;101123.06;;;5.19;74.74
21988;BME280;11158;53.404;-1.510;2024-01-06T16:11:01;101127.47;;;5.17;74.59
21988;BME280;11158;53.404;-1.510;2024-01-06T16:13:26;101117.78;;;5.18;73.64
21988;BME280;11158;53.404;-1.510;2024-01-06T16:15:52;101122.25;;;5.14;74.24
21988;BME280;11158;53.404;-1.510;2024-01-06T16:18:18;101131.91;;;5.14;75.26
21988;BME280;11158;53.404;-1.510;2024-01-06T16:20:45;101137.25;;;5.09;75.60
21988;BME280;11158;53.404;-1.510;2024-01-06T16:23:11;101140.81;;;5.00;76.05
21988;BME280;11158;53.404;-1.510;2024-01-06T16:25:38;101148.72;;;5.00;76.05
21988;BME280;11158;53.404;-1.510;2024-01-06T16:28:04;101153.06;;;5.12;76.27
21988;BME280;11158;53.404;-1.510;2024-01-06T16:30:32;101159.31;;;5.00;76.41
21988;BME280;11158;53.404;-1.510;2024-01-06T16:32:57;101168.19;;;4.85;75.93
21988;BME280;11158;53.404;-1.510;2024-01-06T16:35:25;101166.50;;;4.75;76.30
21988;BME280;11158;53.404;-1.510;2024-01-06T16:37:50;101169.09;;;4.84;77.54
21988;BME280;11158;53.404;-1.510;2024-01-06T16:40:16;101164.69;;;4.83;76.77
21988;BME280;11158;53.404;-1.510;2024-01-06T16:42:42;101169.03;;;4.95;76.92
21988;BME280;11158;53.404;-1.510;2024-01-06T16:45:08;101169.09;;;4.86;77.63
21988;BME280;11158;53.404;-1.510;2024-01-06T16:47:33;101173.44;;;4.93;76.91
21988;BME280;11158;53.404;-1.510;2024-01-06T16:49:59;101182.31;;;4.83;76.61
21988;BME280;11158;53.404;-1.510;2024-01-06T16:52:25;101188.34;;;5.02;76.12
21988;BME280;11158;53.404;-1.510;2024-01-06T16:54:50;101191.91;;;4.93;76.79
21988;BME280;11158;53.404;-1.510;2024-01-06T16:57:16;101195.41;;;4.97;77.24
21988;BME280;11158;53.404;-1.510;2024-01-06T16:59:42;101194.53;;;5.01;76.94
21988;BME280;11158;53.404;-1.510;2024-01-06T17:02:07;101192.72;;;5.09;76.97
21988;BME280;11158;53.404;-1.510;2024-01-06T17:04:33;101185.72;;;5.00;77.41
21988;BME280;11158;53.404;-1.510;2024-01-06T17:07:01;101193.66;;;4.99;76.30
21988;BME280;11158;53.404;-1.510;2024-01-06T17:09:29;101204.22;;;5.03;76.30
21988;BME280;11158;53.404;-1.510;2024-01-06T17:11:54;101197.22;;;4.92;76.31
21988;BME280;11158;53.404;-1.510;2024-01-06T17:14:20;101206.06;;;4.86;77.39
21988;BME280;11158;53.404;-1.510;2024-01-06T17:16:45;101200.75;;;4.91;78.29
21988;BME280;11158;53.404;-1.510;2024-01-06T17:19:11;101209.59;;;4.86;78.66
21988;BME280;11158;53.404;-1.510;2024-01-06T17:21:37;101210.50;;;4.84;78.50
21988;BME280;11158;53.404;-1.510;2024-01-06T17:24:02;101214.00;;;4.83;78.09
21988;BME280;11158;53.404;-1.510;2024-01-06T17:26:28;101207.84;;;4.81;78.08
21988;BME280;11158;53.404;-1.510;2024-01-06T17:28:54;101214.91;;;4.82;77.91
21988;BME280;11158;53.404;-1.510;2024-01-06T17:31:20;101212.19;;;4.91;77.41
21988;BME280;11158;53.404;-1.510;2024-01-06T17:33:45;101222.75;;;4.94;77.24
21988;BME280;11158;53.404;-1.510;2024-01-06T17:36:10;101225.44;;;4.89;76.91
21988;BME280;11158;53.404;-1.510;2024-01-06T17:38:36;101226.34;;;4.79;77.63
21988;BME280;11158;53.404;-1.510;2024-01-06T17:41:02;101216.63;;;4.83;77.74
21988;BME280;11158;53.404;-1.510;2024-01-06T17:43:28;101224.59;;;4.75;79.25
21988;BME280;11158;53.404;-1.510;2024-01-06T17:45:54;101229.91;;;4.67;79.00
21988;BME280;11158;53.404;-1.510;2024-01-06T17:48:19;101237.00;;;4.59;78.90
21988;BME280;11158;53.404;-1.510;2024-01-06T17:50:45;101234.34;;;4.59;79.19
21988;BME280;11158;53.404;-1.510;2024-01-06T17:53:10;101239.66;;;4.52;79.98
21988;BME280;11158;53.404;-1.510;2024-01-06T17:55:36;101234.38;;;4.50;80.54
21988;BME280;11158;53.404;-1.510;2024-01-06T17:58:01;101242.28;;;4.44;80.64
21988;BME280;11158;53.404;-1.510;2024-01-06T18:00:28;101238.75;;;4.54;82.02
21988;BME280;11158;53.404;-1.510;2024-01-06T18:02:55;101232.63;;;4.52;81.10
21988;BME280;11158;53.404;-1.510;2024-01-06T18:05:21;101226.47;;;4.47;81.36
21988;BME280;11158;53.404;-1.510;2024-01-06T18:07:46;101226.47;;;4.44;81.96
21988;BME280;11158;53.404;-1.510;2024-01-06T18:10:11;101231.78;;;4.33;81.44
21988;BME280;11158;53.404;-1.510;2024-01-06T18:12:37;101239.75;;;4.07;81.33
21988;BME280;11158;53.404;-1.510;2024-01-06T18:15:04;101239.78;;;4.01;82.25
21988;BME280;11158;53.404;-1.510;2024-01-06T18:17:30;101240.63;;;4.01;82.47
21988;BME280;11158;53.404;-1.510;2024-01-06T18:19:55;101245.03;;;4.19;82.06
21988;BME280;11158;53.404;-1.510;2024-01-06T18:22:21;101246.78;;;4.23;82.17
21988;BME280;11158;53.404;-1.510;2024-01-06T18:24:47;101246.72;;;4.36;82.16
21988;BME280;11158;53.404;-1.510;2024-01-06T18:27:12;101245.88;;;4.27;82.56
21988;BME280;11158;53.404;-1.510;2024-01-06T18:29:37;101252.94;;;4.27;82.10
21988;BME280;11158;53.404;-1.510;2024-01-06T18:32:06;101265.22;;;4.20;81.82
21988;BME280;11158;53.404;-1.510;2024-01-06T18:34:32;101266.09;;;4.22;82.35
21988;BME280;11158;53.404;-1.510;2024-01-06T18:36:57;101268.75;;;4.18;82.07
21988;BME280;11158;53.404;-1.510;2024-01-06T18:39:23;101257.28;;;4.25;82.42
21988;BME280;11158;53.404;-1.510;2024-01-06T18:41:51;101273.16;;;4.20;82.17
21988;BME280;11158;53.404;-1.510;2024-01-06T18:44:16;101269.63;;;4.24;81.80
21988;BME280;11158;53.404;-1.510;2024-01-06T18:46:42;101281.97;;;4.19;81.61
21988;BME280;11158;53.404;-1.510;2024-01-06T18:49:07;101282.81;;;4.32;82.33
21988;BME280;11158;53.404;-1.510;2024-01-06T18:51:33;101274.00;;;4.36;80.97
21988;BME280;11158;53.404;-1.510;2024-01-06T18:54:08;101279.28;;;4.39;81.10
21988;BME280;11158;53.404;-1.510;2024-01-06T18:56:34;101285.44;;;4.44;80.36
21988;BME280;11158;53.404;-1.510;2024-01-06T18:59:00;101282.81;;;4.38;80.76
21988;BME280;11158;53.404;-1.510;2024-01-06T19:01:26;101283.66;;;4.42;80.60
21988;BME280;11158;53.404;-1.510;2024-01-06T19:03:53;101287.16;;;4.45;79.18
21988;BME280;11158;53.404;-1.510;2024-01-06T19:06:18;101294.19;;;4.49;79.26
21988;BME280;11158;53.404;-1.510;2024-01-06T19:08:44;101287.16;;;4.44;79.80
21988;BME280;11158;53.404;-1.510;2024-01-06T19:11:09;101293.34;;;4.40;79.92
21988;BME280;11158;53.404;-1.510;2024-01-06T19:13:35;101295.97;;;4.41;80.50
21988;BME280;11158;53.404;-1.510;2024-01-06T19:16:01;101293.34;;;4.52;79.72
21988;BME280;11158;53.404;-1.510;2024-01-06T19:18:27;101291.59;;;4.48;79.57
21988;BME280;11158;53.404;-1.510;2024-01-06T19:20:52;101304.78;;;4.45;79.38
21988;BME280;11158;53.404;-1.510;2024-01-06T19:23:18;101300.34;;;4.55;79.03
21988;BME280;11158;53.404;-1.510;2024-01-06T19:25:43;101303.00;;;4.55;79.04
21988;BME280;11158;53.404;-1.510;2024-01-06T19:28:08;101305.63;;;4.55;78.75
21988;BME280;11158;53.404;-1.510;2024-01-06T19:30:37;101304.75;;;4.51;79.06
21988;BME280;11158;53.404;-1.510;2024-01-06T19:33:03;101309.16;;;4.52;79.00
21988;BME280;11158;53.404;-1.510;2024-01-06T19:35:31;101308.28;;;4.48;79.49
21988;BME280;11158;53.404;-1.510;2024-01-06T19:37:57;101317.97;;;4.54;79.32
21988;BME280;11158;53.404;-1.510;2024-01-06T19:40:22;101317.97;;;4.54;79.84
21988;BME280;11158;53.404;-1.510;2024-01-06T19:42:48;101329.38;;;4.53;79.39
21988;BME280;11158;53.404;-1.510;2024-01-06T19:45:16;101333.81;;;4.53;79.40
21988;BME280;11158;53.404;-1.510;2024-01-06T19:47:42;101339.97;;;4.44;79.45
21988;BME280;11158;53.404;-1.510;2024-01-06T19:50:07;101338.22;;;4.37;79.79
21988;BME280;11158;53.404;-1.510;2024-01-06T19:52:33;101333.81;;;4.45;79.68
21988;BME280;11158;53.404;-1.510;2024-01-06T19:54:59;101340.84;;;4.43;79.62
21988;BME280;11158;53.404;-1.510;2024-01-06T19:57:27;101338.22;;;4.54;79.56
21988;BME280;11158;53.404;-1.510;2024-01-06T19:59:52;101341.72;;;4.53;79.36
21988;BME280;11158;53.404;-1.510;2024-01-06T20:02:18;101346.97;;;4.60;78.77
21988;BME280;11158;53.404;-1.510;2024-01-06T20:04:45;101345.25;;;4.59;78.45
21988;BME280;11158;53.404;-1.510;2024-01-06T20:07:11;101346.13;;;4.60;78.47
21988;BME280;11158;53.404;-1.510;2024-01-06T20:09:37;101347.88;;;4.59;78.44
21988;BME280;11158;53.404;-1.510;2024-01-06T20:12:02;101360.19;;;4.65;78.32
21988;BME280;11158;53.404;-1.510;2024-01-06T20:14:28;101354.91;;;4.59;78.81
21988;BME280;11158;53.404;-1.510;2024-01-06T20:16:53;101357.56;;;4.63;78.55
21988;BME280;11158;53.404;-1.510;2024-01-06T20:19:21;101367.22;;;4.58;78.55
21988;BME280;11158;53.404;-1.510;2024-01-06T20:21:46;101365.47;;;4.49;78.84
21988;BME280;11158;53.404;-1.510;2024-01-06T20:24:11;101364.59;;;4.50;79.67
21988;BME280;11158;53.404;-1.510;2024-01-06T20:26:37;101363.75;;;4.52;79.13
21988;BME280;11158;53.404;-1.510;2024-01-06T20:29:03;101369.88;;;4.49;79.74
21988;BME280;11158;53.404;-1.510;2024-01-06T20:31:29;101369.00;;;4.52;79.44
21988;BME280;11158;53.404;-1.510;2024-01-06T20:33:54;101366.34;;;4.53;79.35
21988;BME280;11158;53.404;-1.510;2024-01-06T20:36:20;101368.13;;;4.53;78.92
21988;BME280;11158;53.404;-1.510;2024-01-06T20:38:46;101382.19;;;4.58;78.46
21988;BME280;11158;53.404;-1.510;2024-01-06T20:41:14;101376.94;;;4.52;79.47
21988;BME280;11158;53.404;-1.510;2024-01-06T20:43:40;101379.56;;;4.58;78.66
21988;BME280;11158;53.404;-1.510;2024-01-06T20:46:06;101380.41;;;4.55;79.14
21988;BME280;11158;53.404;-1.510;2024-01-06T20:48:32;101376.03;;;4.54;80.13
21988;BME280;11158;53.404;-1.510;2024-01-06T20:50:57;101383.09;;;4.54;79.44
21988;BME280;11158;53.404;-1.510;2024-01-06T20:53:25;101382.19;;;4.61;78.64
21988;BME280;11158;53.404;-1.510;2024-01-06T20:55:50;101383.94;;;4.60;78.30
21988;BME280;11158;53.404;-1.510;2024-01-06T20:58:16;101379.53;;;4.53;78.71
21988;BME280;11158;53.404;-1.510;2024-01-06T21:00:41;101380.44;;;4.60;78.32
21988;BME280;11158;53.404;-1.510;2024-01-06T21:03:06;101382.19;;;4.65;78.21
21988;BME280;11158;53.404;-1.510;2024-01-06T21:05:32;101389.25;;;4.65;77.34
21988;BME280;11158;53.404;-1.510;2024-01-06T21:07:57;101395.38;;;4.68;nan
21988;BME280;11158;53.404;-1.510;2024-01-06T21:10:23;101391.88;;;4.62;77.87
21988;BME280;11158;53.404;-1.510;2024-01-06T21:12:48;101387.47;;;4.64;77.53
21988;BME280;11158;53.404;-1.510;2024-01-06T21:15:13;101401.53;;;4.64;77.44
21988;BME280;11158;53.404;-1.510;2024-01-06T21:17:39;101396.28;;;4.61;76.91
21988;BME280;11158;53.404;-1.510;2024-01-06T21:20:05;101397.16;;;4.57;76.90
21988;BME280;11158;53.404;-1.510;2024-01-06T21:22:32;101393.63;;;4.57;77.17
21988;BME280;11158;53.404;-1.510;2024-01-06T21:24:59;101392.75;;;4.55;77.74
21988;BME280;11158;53.404;-1.510;2024-01-06T21:27:26;101399.81;;;4.54;77.84
21988;BME280;11158;53.404;-1.510;2024-01-06T21:29:51;101398.03;;;4.53;76.67
21988;BME280;11158;53.404;-1.510;2024-01-06T21:32:17;101394.53;;;4.57;76.80
21988;BME280;11158;53.404;-1.510;2024-01-06T21:34:42;101398.00;;;4.61;75.74
21988;BME280;11158;53.404;-1.510;2024-01-06T21:37:08;101401.56;;;4.60;76.21
21988;BME280;11158;53.404;-1.510;2024-01-06T21:39:33;101408.59;;;4.59;77.60
21988;BME280;11158;53.404;-1.510;2024-01-06T21:41:59;101410.38;;;4.57;76.68
21988;BME280;11158;53.404;-1.510;2024-01-06T21:44:25;101413.00;;;4.57;76.91
21988;BME280;11158;53.404;-1.510;2024-01-06T21:46:50;101406.84;;;4.58;77.37
21988;BME280;11158;53.404;-1.510;2024-01-06T21:49:16;101418.25;;;4.59;76.57
21988;BME280;11158;53.404;-1.510;2024-01-06T21:51:52;101415.63;;;4.60;75.47
21988;BME280;11158;53.404;-1.510;2024-01-06T21:54:20;101423.56;;;4.62;76.33
21988;BME280;11158;53.404;-1.510;2024-01-06T21:56:45;101421.81;;;4.59;75.55
21988;BME280;11158;53.404;-1.510;2024-01-06T21:59:11;101424.44;;;4.56;76.53
21988;BME280;11158;53.404;-1.510;2024-01-06T22:01:37;101433.22;;;4.55;76.06
21988;BME280;11158;53.404;-1.510;2024-01-06T22:04:04;101430.59;;;4.58;76.27
21988;BME280;11158;53.404;-1.510;2024-01-06T22:06:29;101432.34;;;4.61;75.74
21988;BME280;11158;53.404;-1.510;2024-01-06T22:08:55;101438.53;;;4.54;76.34
21988;BME280;11158;53.404;-1.510;2024-01-06T22:11:21;101437.66;;;4.50;77.71
21988;BME280;11158;53.404;-1.510;2024-01-06T22:13:46;101448.19;;;4.53;77.41
21988;BME280;11158;53.404;-1.510;2024-01-06T22:16:12;101442.03;;;4.53;77.24
21988;BME280;11158;53.404;-1.510;2024-01-06T22:18:37;101449.06;;;4.55;77.14
21988;BME280;11158;53.404;-1.510;2024-01-06T22:21:03;101445.56;;;4.50;77.51
21988;BME280;11158;53.404;-1.510;2024-01-06T22:23:28;101451.72;;;4.43;78.27
21988;BME280;11158;53.404;-1.510;2024-01-06T22:25:54;101457.00;;;4.43;78.56
21988;BME280;11158;53.404;-1.510;2024-01-06T22:28:20;101456.09;;;4.36;78.61
21988;BME280;11158;53.404;-1.510;2024-01-06T22:30:45;101453.47;;;4.39;78.81
21988;BME280;11158;53.404;-1.510;2024-01-06T22:33:12;101455.25;;;4.39;78.56
21988;BME280;11158;53.404;-1.510;2024-01-06T22:35:38;101466.66;;;4.30;79.08
21988;BME280;11158;53.404;-1.510;2024-01-06T22:38:03;101468.41;;;4.22;80.28
21988;BME280;11158;53.404;-1.510;2024-01-06T22:40:29;101472.78;;;4.23;80.88
21988;BME280;11158;53.404;-1.510;2024-01-06T22:42:57;101480.72;;;4.30;82.14
21988;BME280;11158;53.404;-1.510;2024-01-06T22:45:23;101478.97;;;4.29;81.96
21988;BME280;11158;53.404;-1.510;2024-01-06T22:47:50;101487.75;;;4.22;82.60
21988;BME280;11158;53.404;-1.510;2024-01-06T22:50:15;101485.06;;;4.11;81.82
21988;BME280;11158;53.404;-1.510;2024-01-06T22:52:41;101483.31;;;4.04;82.07
21988;BME280;11158;53.404;-1.510;2024-01-06T22:55:06;101494.75;;;3.99;82.47
21988;BME280;11158;53.404;-1.510;2024-01-06T22:57:34;101491.28;;;4.14;81.80
21988;BME280;11158;53.404;-1.510;2024-01-06T22:59:59;101493.91;;;4.18;81.80
21988;BME280;11158;53.404;-1.510;2024-01-06T23:02:25;101498.28;;;4.10;81.40
21988;BME280;11158;53.404;-1.510;2024-01-06T23:04:50;101500.03;;;4.09;81.69
21988;BME280;11158;53.404;-1.510;2024-01-06T23:07:18;101504.47;;;4.18;81.75
21988;BME280;11158;53.404;-1.510;2024-01-06T23:09:44;101509.75;;;4.21;81.09
21988;BME280;11158;53.404;-1.510;2024-01-06T23:12:09;101515.91;;;4.16;80.98
21988;BME280;11158;53.404;-1.510;2024-01-06T23:14:35;101522.03;;;4.16;82.09
21988;BME280;11158;53.404;-1.510;2024-01-06T23:17:00;101522.03;;;4.15;81.86
21988;BME280;11158;53.404;-1.510;2024-01-06T23:19:26;101531.72;;;4.20;82.16
21988;BME280;11158;53.404;-1.510;2024-01-06T23:21:52;101530.84;;;4.17;82.18
21988;BME280;11158;53.404;-1.510;2024-01-06T23:24:17;101535.25;;;4.16;82.34
21988;BME280;11158;53.404;-1.510;2024-01-06T23:26:44;101529.94;;;4.11;81.73
21988;BME280;11158;53.404;-1.510;2024-01-06T23:29:09;101536.97;;;4.17;81.67
21988;BME280;11158;53.404;-1.510;2024-01-06T23:31:35;101537.84;;;4.08;81.91
21988;BME280;11158;53.404;-1.510;2024-01-06T23:34:01;101535.22;;;4.15;81.55
21988;BME280;11158;53.404;-1.510;2024-01-06T23:36:26;101543.13;;;4.02;81.62
21988;BME280;11158;53.404;-1.510;2024-01-06T23:38:51;101542.19;;;3.94;82.11
21988;BME280;11158;53.404;-1.510;2024-01-06T23:41:17;101541.34;;;3.97;82.51
21988;BME280;11158;53.404;-1.510;2024-01-06T23:43:42;101545.75;;;4.01;82.13
21988;BME280;11158;53.404;-1.510;2024-01-06T23:46:08;101550.94;;;3.88;82.06
21988;BME280;11158;53.404;-1.510;2024-01-06T23:48:34;101554.47;;;3.86;82.68
21988;BME280;11158;53.404;-1.510;2024-01-06T23:50:59;101562.34;;;3.80;81.87
21988;BME280;11158;53.404;-1.510;2024-01-06T23:53:25;101557.91;;;3.72;82.59
21988;BME280;11158;53.404;-1.510;2024-01-06T23:55:50;101561.50;;;3.84;82.67
21988;BME280;11158;53.404;-1.510;2024-01-06T23:58:16;101558.88;;;3.90;82.88
